Time;durP1;ratioP1;P1;durP2;ratioP2;P2;SDS_P1;SDS_P2;PMS_P1;PMS_P2;Temp;Humidity;BMP_temperature;BMP_pressure;BME280_temperature;BME280_humidity;BME280_pressure;Samples;Min_cycle;Max_cycle;Signal;HPM_P1;HPM_P2
2022/07/07 00:00:05;;;;;;;5.43;2.55;;;;;;;21.07;39.00;92836.50;5016110;28;20037;-74
2022/07/07 00:02:31;;;;;;;6.75;2.60;;;;;;;21.05;39.46;92838.72;5016386;28;20036;-75
2022/07/07 00:04:57;;;;;;;5.13;2.40;;;;;;;21.03;39.52;92841.75;5033553;28;20041;-74
2022/07/07 00:07:23;;;;;;;4.43;2.38;;;;;;;20.97;39.84;92835.91;5033933;28;20040;-74
2022/07/07 00:09:49;;;;;;;4.88;2.30;;;;;;;20.95;40.12;92840.00;5033297;28;20025;-74
2022/07/07 00:12:14;;;;;;;4.85;2.47;;;;;;;20.91;39.63;92831.94;5015737;28;20479;-74
2022/07/07 00:14:40;;;;;;;5.32;2.50;;;;;;;20.89;39.89;92836.81;5032586;28;20033;-74
2022/07/07 00:17:06;;;;;;;3.85;2.20;;;;;;;20.89;39.89;92826.19;5033572;28;20041;-74
2022/07/07 00:19:32;;;;;;;3.97;2.10;;;;;;;20.86;40.08;92826.88;5033019;28;20033;-74
2022/07/07 00:21:57;;;;;;;4.15;2.20;;;;;;;20.87;39.90;92812.44;5015632;28;20278;-74
2022/07/07 00:24:23;;;;;;;5.90;2.40;;;;;;;20.86;39.96;92818.88;5002693;28;20034;-74
2022/07/07 00:26:49;;;;;;;4.00;2.30;;;;;;;20.83;40.13;92814.25;5028592;28;20044;-75
2022/07/07 00:29:14;;;;;;;4.97;2.92;;;;;;;20.82;40.01;92825.22;5014254;28;20029;-74
2022/07/07 00:31:40;;;;;;;4.10;2.45;;;;;;;20.82;40.17;92820.69;5027153;28;20408;-74
2022/07/07 00:34:05;;;;;;;4.53;2.40;;;;;;;20.82;40.04;92826.00;5016976;28;20124;-74
2022/07/07 00:36:31;;;;;;;3.80;2.28;;;;;;;20.81;40.27;92827.13;5012146;28;20041;-74
2022/07/07 00:38:57;;;;;;;5.65;2.47;;;;;;;20.77;40.23;92821.69;5011234;28;20041;-74
2022/07/07 00:41:22;;;;;;;6.68;2.35;;;;;;;20.76;40.12;92822.84;5011429;28;20037;-74
2022/07/07 00:43:48;;;;;;;6.07;2.55;;;;;;;20.78;40.10;92825.13;4994186;28;20124;-74
2022/07/07 00:46:14;;;;;;;5.75;2.40;;;;;;;20.74;40.15;92813.66;4994553;28;20050;-74
2022/07/07 00:48:40;;;;;;;4.18;2.22;;;;;;;20.75;39.93;92807.19;5011946;28;20057;-74
2022/07/07 00:51:09;;;;;;;6.43;2.20;;;;;;;20.75;39.70;92818.63;5011703;28;20077;-74
2022/07/07 00:53:37;;;;;;;4.95;2.33;;;;;;;20.72;39.76;92821.97;5011916;28;20053;-74
2022/07/07 00:56:02;;;;;;;4.18;2.33;;;;;;;20.72;39.60;92824.63;5010920;28;20033;-74
2022/07/07 00:58:28;;;;;;;4.32;2.20;;;;;;;20.70;40.05;92820.75;4977922;28;20034;-74
2022/07/07 01:00:54;;;;;;;4.80;2.20;;;;;;;20.66;40.28;92822.56;5011630;28;20053;-74
2022/07/07 01:03:19;;;;;;;4.13;2.35;;;;;;;20.61;40.47;92820.91;4993942;28;20045;-74
2022/07/07 01:05:46;;;;;;;3.58;2.28;;;;;;;20.57;40.32;92820.81;5010828;28;20117;-74
2022/07/07 01:08:15;;;;;;;4.88;2.40;;;;;;;20.52;40.61;92818.38;5011468;28;20037;-74
2022/07/07 01:10:44;;;;;;;4.47;2.20;;;;;;;20.49;40.86;92820.94;5011772;28;20041;-74
2022/07/07 01:13:10;;;;;;;4.82;2.50;;;;;;;20.46;40.67;92813.63;5010957;28;20102;-74
2022/07/07 01:15:36;;;;;;;4.55;2.25;;;;;;;20.44;40.71;92818.53;4993863;28;20420;-74
2022/07/07 01:18:02;;;;;;;4.35;2.33;;;;;;;20.42;40.61;92824.16;4977627;28;20436;-74
2022/07/07 01:20:28;;;;;;;5.03;2.83;;;;;;;20.39;40.81;92820.31;5011296;28;20496;-74
2022/07/07 01:22:54;;;;;;;4.03;2.05;;;;;;;20.36;41.07;92821.00;5011466;28;20105;-74
2022/07/07 01:25:21;;;;;;;4.20;2.40;;;;;;;20.34;41.42;92817.13;5011706;28;20340;-74
2022/07/07 01:27:47;;;;;;;6.13;2.50;;;;;;;20.33;41.08;92821.69;5010557;28;20037;-74
2022/07/07 01:30:13;;;;;;;4.95;2.40;;;;;;;20.30;41.61;92813.59;5011082;28;20041;-74
2022/07/07 01:32:39;;;;;;;6.22;2.50;;;;;;;20.26;42.11;92810.81;4961998;28;1176255;-73
2022/07/07 01:35:05;;;;;;;4.20;2.30;;;;;;;20.22;42.71;92802.00;5031950;28;20042;-74
2022/07/07 01:37:33;;;;;;;6.22;2.50;;;;;;;20.21;42.81;92805.00;5010624;28;20071;-74
2022/07/07 01:39:59;;;;;;;4.43;2.30;;;;;;;20.28;41.27;92797.97;5012369;28;20494;-74
2022/07/07 01:42:25;;;;;;;4.55;2.33;;;;;;;20.27;40.91;92793.78;5014393;28;20041;-74
2022/07/07 01:44:51;;;;;;;8.05;2.30;;;;;;;20.21;41.59;92792.47;5013324;28;20041;-74
2022/07/07 01:47:19;;;;;;;5.28;2.55;;;;;;;20.18;41.47;92777.97;5029044;28;20040;-74
2022/07/07 01:49:45;;;;;;;4.40;2.45;;;;;;;20.14;41.31;92782.41;5031642;28;20105;-74
2022/07/07 01:52:11;;;;;;;3.65;2.20;;;;;;;20.11;41.28;92788.41;5031238;28;20044;-74
2022/07/07 01:54:37;;;;;;;3.88;2.33;;;;;;;20.12;41.09;92787.28;5030263;28;20026;-74
2022/07/07 01:57:04;;;;;;;4.05;2.10;;;;;;;20.13;40.51;92782.78;5031740;28;20042;-74
2022/07/07 01:59:30;;;;;;;4.75;2.22;;;;;;;20.11;40.69;92785.75;5031031;28;20037;-74
2022/07/07 02:01:56;;;;;;;4.10;2.30;;;;;;;20.11;40.67;92792.97;5013589;28;20036;-74
2022/07/07 02:04:21;;;;;;;4.53;2.40;;;;;;;20.04;41.27;92788.22;5031577;28;20491;-74
2022/07/07 02:06:47;;;;;;;3.60;2.40;;;;;;;20.00;41.29;92783.94;5013941;28;20527;-74
2022/07/07 02:09:13;;;;;;;6.63;2.03;;;;;;;20.00;41.01;92786.59;5012585;28;20033;-74
2022/07/07 02:11:39;;;;;;;6.07;2.30;;;;;;;19.99;40.80;92785.78;5031374;28;20033;-74
2022/07/07 02:14:05;;;;;;;7.10;2.28;;;;;;;19.95;41.09;92790.25;5031625;28;20056;-74
2022/07/07 02:16:31;;;;;;;7.50;2.50;;;;;;;19.90;41.16;92785.16;5031424;28;20499;-74
2022/07/07 02:18:59;;;;;;;5.13;2.40;;;;;;;19.86;41.36;92789.59;5030720;28;20037;-74
2022/07/07 02:21:25;;;;;;;3.88;2.20;;;;;;;19.81;41.66;92789.81;5013520;28;20034;-74
2022/07/07 02:23:52;;;;;;;6.30;2.13;;;;;;;19.76;41.82;92788.94;5020013;28;20021;-74
2022/07/07 02:26:18;;;;;;;4.25;2.22;;;;;;;19.70;42.29;92795.63;4978206;28;20070;-74
2022/07/07 02:28:44;;;;;;;3.53;2.20;;;;;;;19.65;42.92;92798.44;5012096;28;20038;-74
2022/07/07 02:31:10;;;;;;;4.45;2.40;;;;;;;19.60;43.01;92800.59;5030619;28;20025;-74
2022/07/07 02:33:36;;;;;;;4.78;2.40;;;;;;;19.59;42.67;92805.13;5013238;28;20049;-74
2022/07/07 02:36:03;;;;;;;4.47;2.40;;;;;;;19.56;42.41;92803.13;5031010;28;20036;-74
2022/07/07 02:38:29;;;;;;;5.43;2.20;;;;;;;19.56;42.29;92795.91;5031043;28;20038;-74
2022/07/07 02:40:55;;;;;;;7.90;2.40;;;;;;;19.53;42.74;92798.47;5012680;28;20045;-74
2022/07/07 02:43:22;;;;;;;3.67;2.17;;;;;;;19.50;43.12;92799.16;5030543;28;20041;-74
2022/07/07 02:45:49;;;;;;;3.72;2.33;;;;;;;19.46;43.60;92792.97;5030725;28;20113;-74
2022/07/07 02:48:17;;;;;;;3.97;2.10;;;;;;;19.43;42.94;92785.66;5031008;28;20079;-74
2022/07/07 02:50:43;;;;;;;4.50;2.55;;;;;;;19.40;43.00;92788.97;5030192;28;20060;-74
2022/07/07 02:53:10;;;;;;;8.15;2.83;;;;;;;19.40;42.76;92791.63;5030453;28;20029;-74
2022/07/07 02:55:36;;;;;;;4.05;2.25;;;;;;;19.38;43.07;92791.97;5030774;28;20113;-74
2022/07/07 02:58:04;;;;;;;5.03;2.10;;;;;;;19.39;42.72;92790.09;5030013;28;20037;-74
2022/07/07 03:00:33;;;;;;;4.72;2.75;;;;;;;19.40;42.82;92796.94;5029863;28;20092;-74
2022/07/07 03:03:00;;;;;;;4.03;2.20;;;;;;;19.40;42.44;92791.63;5012877;28;20045;-74
2022/07/07 03:05:26;;;;;;;7.25;2.58;;;;;;;19.41;42.25;92795.81;5001006;28;20057;-74
2022/07/07 03:07:52;;;;;;;4.35;2.60;;;;;;;19.41;42.48;92806.44;5017166;28;20111;-74
2022/07/07 03:10:17;;;;;;;3.15;2.03;;;;;;;19.42;42.16;92810.66;5034779;28;20543;-74
2022/07/07 03:12:43;;;;;;;4.72;2.45;;;;;;;19.43;42.03;92805.03;4999824;28;20106;-74
2022/07/07 03:15:09;;;;;;;4.35;2.30;;;;;;;19.40;42.65;92795.06;5034613;28;20022;-74
2022/07/07 03:17:36;;;;;;;5.07;2.50;;;;;;;19.34;43.61;92799.84;5034848;28;20040;-74
2022/07/07 03:20:03;;;;;;;7.18;2.53;;;;;;;19.27;43.57;92802.28;5035691;28;20037;-74
2022/07/07 03:22:28;;;;;;;3.28;2.08;;;;;;;19.23;43.55;92808.53;5016219;28;20072;-74
2022/07/07 03:24:54;;;;;;;3.58;2.20;;;;;;;19.20;43.53;92803.91;5016418;28;20521;-74
2022/07/07 03:27:19;;;;;;;3.85;2.28;;;;;;;19.16;43.62;92803.78;5017403;28;20033;-74
2022/07/07 03:29:45;;;;;;;3.97;2.25;;;;;;;19.15;43.30;92807.56;5001865;28;20057;-73
2022/07/07 03:32:10;;;;;;;6.25;2.88;;;;;;;19.13;43.46;92796.50;5033113;28;20120;-76
2022/07/07 03:34:36;;;;;;;6.32;2.30;;;;;;;19.10;43.58;92805.91;5034022;28;20116;-74
2022/07/07 03:37:02;;;;;;;4.30;2.25;;;;;;;19.08;43.36;92802.81;5034684;28;20038;-73
2022/07/07 03:39:28;;;;;;;5.03;2.40;;;;;;;19.08;43.19;92802.03;5031936;28;20040;-75
2022/07/07 03:41:54;;;;;;;4.90;2.40;;;;;;;19.08;43.27;92802.81;5034106;28;20053;-73
2022/07/07 03:44:19;;;;;;;4.82;2.40;;;;;;;19.09;43.29;92803.56;4998364;28;20044;-73
2022/07/07 03:46:45;;;;;;;4.10;2.33;;;;;;;19.07;43.53;92797.81;5016500;28;20045;-73
2022/07/07 03:49:10;;;;;;;4.28;2.38;;;;;;;19.03;43.67;92799.59;5033974;28;20045;-73
2022/07/07 03:51:36;;;;;;;4.47;2.50;;;;;;;19.00;44.17;92792.28;5016413;28;20056;-76
2022/07/07 03:54:02;;;;;;;3.63;2.20;;;;;;;18.97;44.19;92791.06;5032905;28;20038;-75
2022/07/07 03:56:28;;;;;;;6.72;2.35;;;;;;;18.97;43.80;92793.72;5033369;28;20542;-76
2022/07/07 03:58:53;;;;;;;4.20;2.50;;;;;;;18.99;43.54;92793.41;5034064;28;20424;-75
2022/07/07 04:01:19;;;;;;;6.20;2.33;;;;;;;19.01;43.85;92793.84;5016640;28;20045;-75
2022/07/07 04:03:44;;;;;;;3.83;2.40;;;;;;;19.02;43.89;92796.16;5032324;28;20056;-75
2022/07/07 04:06:10;;;;;;;7.40;2.47;;;;;;;19.02;43.80;92793.50;5033034;28;20092;-75
2022/07/07 04:08:35;;;;;;;6.55;2.60;;;;;;;19.03;43.67;92789.75;5015515;28;20538;-76
2022/07/07 04:11:01;;;;;;;6.28;2.88;;;;;;;19.04;43.90;92796.59;5015898;28;20065;-75
2022/07/07 04:13:27;;;;;;;5.20;2.42;;;;;;;19.04;43.73;92796.59;5015879;28;20117;-75
2022/07/07 04:15:52;;;;;;;3.83;2.30;;;;;;;19.06;43.64;92799.72;5032481;28;20033;-76
2022/07/07 04:18:18;;;;;;;3.83;2.30;;;;;;;19.09;43.56;92799.06;5033002;28;20045;-75
2022/07/07 04:20:43;;;;;;;3.40;2.22;;;;;;;19.12;43.50;92794.97;5019197;28;20053;-75
2022/07/07 04:23:09;;;;;;;5.68;2.40;;;;;;;19.15;43.88;92796.94;5013704;28;20400;-75
2022/07/07 04:25:35;;;;;;;6.60;2.63;;;;;;;19.19;44.24;92797.06;5025237;28;20045;-76
2022/07/07 04:28:00;;;;;;;4.47;2.33;;;;;;;19.21;44.15;92794.88;5033071;28;20468;-76
2022/07/07 04:30:26;;;;;;;5.65;2.33;;;;;;;19.23;43.89;92803.25;5033153;28;20132;-76
2022/07/07 04:32:52;;;;;;;4.75;2.53;;;;;;;19.26;43.61;92803.38;5033046;28;20100;-76
2022/07/07 04:35:17;;;;;;;4.32;2.45;;;;;;;19.29;43.59;92800.03;5032262;28;20045;-75
2022/07/07 04:37:43;;;;;;;4.72;2.30;;;;;;;19.37;43.34;92802.94;5031354;28;20558;-75
2022/07/07 04:40:09;;;;;;;5.25;2.30;;;;;;;19.41;43.59;92793.97;5015353;28;20227;-75
2022/07/07 04:42:34;;;;;;;5.30;2.10;;;;;;;19.45;43.63;92797.47;5032800;28;20030;-75
2022/07/07 04:45:00;;;;;;;4.97;2.30;;;;;;;19.50;43.76;92797.28;5031873;28;20037;-76
2022/07/07 04:47:25;;;;;;;4.28;2.20;;;;;;;19.52;44.48;92802.22;5027003;28;20034;-76
2022/07/07 04:49:52;;;;;;;5.95;2.33;;;;;;;19.55;44.76;92798.94;5000982;28;20025;-76
2022/07/07 04:52:17;;;;;;;6.47;2.33;;;;;;;19.59;44.68;92809.63;5033141;28;20045;-75
2022/07/07 04:54:43;;;;;;;4.55;2.30;;;;;;;19.63;44.79;92799.91;5031244;28;20083;-75
2022/07/07 04:57:09;;;;;;;7.00;2.50;;;;;;;19.68;45.19;92799.66;5032392;28;20029;-76
2022/07/07 04:59:34;;;;;;;4.45;2.20;;;;;;;19.72;44.47;92804.03;4997265;28;20208;-76
2022/07/07 05:02:00;;;;;;;4.78;2.35;;;;;;;19.75;45.24;92803.34;5014658;28;20476;-76
2022/07/07 05:04:25;;;;;;;4.80;2.47;;;;;;;19.78;45.55;92801.91;4997948;28;20092;-77
2022/07/07 05:06:51;;;;;;;4.00;2.30;;;;;;;19.83;46.44;92806.22;5012612;28;20064;-77
2022/07/07 05:09:17;;;;;;;3.92;2.20;;;;;;;19.80;47.33;92812.19;5031874;28;20052;-77
2022/07/07 05:11:42;;;;;;;9.40;2.50;;;;;;;19.83;47.50;92817.59;5014947;28;20042;-77
2022/07/07 05:14:08;;;;;;;4.55;2.47;;;;;;;19.84;48.65;92810.41;5032238;28;20038;-76
2022/07/07 05:16:34;;;;;;;5.22;2.50;;;;;;;19.85;48.93;92817.28;5014304;28;20046;-77
2022/07/07 05:18:59;;;;;;;4.30;2.35;;;;;;;19.84;49.99;92815.75;5014405;28;20044;-76
2022/07/07 05:21:25;;;;;;;7.38;2.58;;;;;;;19.92;48.83;92812.16;5032210;28;20120;-76
2022/07/07 05:23:50;;;;;;;6.15;2.45;;;;;;;20.05;49.78;92815.56;5032131;28;20052;-77
2022/07/07 05:26:16;;;;;;;4.38;2.70;;;;;;;19.92;50.89;92823.56;5013501;28;20569;-76
2022/07/07 05:28:42;;;;;;;3.80;2.42;;;;;;;19.90;49.71;92830.31;5013976;28;20033;-76
2022/07/07 05:31:13;;;;;;;4.85;2.53;;;;;;;20.00;50.77;92824.53;5032107;28;20065;-77
2022/07/07 05:33:40;;;;;;;6.72;2.35;;;;;;;20.09;50.96;92837.69;5018108;28;20049;-76
2022/07/07 05:36:06;;;;;;;4.72;2.50;;;;;;;20.07;51.52;92835.38;4994508;28;20077;-76
2022/07/07 05:38:33;;;;;;;11.80;2.60;;;;;;;20.08;51.89;92836.91;4992751;28;20041;-76
2022/07/07 05:40:58;;;;;;;4.57;2.55;;;;;;;20.13;52.45;92839.34;4993583;28;20436;-76
2022/07/07 05:43:25;;;;;;;6.00;2.75;;;;;;;20.25;52.05;92845.75;4994562;28;20068;-76
2022/07/07 05:45:50;;;;;;;4.72;2.50;;;;;;;20.39;51.81;92846.13;5011852;28;20069;-77
2022/07/07 05:48:17;;;;;;;6.95;2.70;;;;;;;20.50;52.04;92849.84;4994218;28;20116;-76
2022/07/07 05:50:42;;;;;;;6.75;2.70;;;;;;;20.72;51.55;92845.91;4994411;28;20513;-76
2022/07/07 05:53:09;;;;;;;7.35;2.67;;;;;;;21.27;51.02;92851.44;4994126;28;20045;-77
2022/07/07 05:55:35;;;;;;;4.53;2.42;;;;;;;21.90;50.30;92852.53;5011545;28;20038;-77
2022/07/07 05:58:00;;;;;;;4.25;2.40;;;;;;;22.51;48.33;92845.81;4994278;28;20552;-75
2022/07/07 06:00:27;;;;;;;4.85;2.30;;;;;;;23.15;46.32;92847.00;4977425;28;20042;-75
2022/07/07 06:02:53;;;;;;;5.35;2.50;;;;;;;23.68;44.11;92843.63;4991794;28;20121;-75
2022/07/07 06:05:19;;;;;;;5.28;2.70;;;;;;;24.16;41.99;92849.31;5013675;28;20040;-75
2022/07/07 06:07:45;;;;;;;7.80;2.40;;;;;;;24.30;39.98;92854.81;5018946;28;20705;-75
2022/07/07 06:10:11;;;;;;;4.95;2.30;;;;;;;24.75;40.26;92846.22;4993094;28;20034;-75
2022/07/07 06:12:41;;;;;;;4.13;2.22;;;;;;;25.02;38.94;92846.88;5012279;28;20030;-76
2022/07/07 06:15:07;;;;;;;5.97;2.38;;;;;;;25.41;38.25;92847.25;5009063;28;20041;-77
2022/07/07 06:17:33;;;;;;;4.60;2.13;;;;;;;25.81;37.24;92851.00;4975198;28;20030;-75
2022/07/07 06:19:59;;;;;;;6.80;2.55;;;;;;;25.96;38.82;92852.66;4985042;28;20391;-75
2022/07/07 06:22:26;;;;;;;5.60;2.58;;;;;;;26.36;37.28;92845.56;4970140;28;20046;-76
2022/07/07 06:24:52;;;;;;;5.55;2.30;;;;;;;26.83;36.10;92839.66;5010406;28;20029;-76
2022/07/07 06:27:18;;;;;;;7.65;2.60;;;;;;;27.13;36.20;92837.41;4987941;28;20041;-76
2022/07/07 06:29:44;;;;;;;7.18;2.70;;;;;;;27.30;35.80;92838.59;4969766;28;20070;-76
2022/07/07 06:32:10;;;;;;;4.22;2.25;;;;;;;27.79;34.99;92836.31;4991071;28;20548;-76
2022/07/07 06:34:36;;;;;;;3.95;2.40;;;;;;;28.22;34.33;92825.50;4993651;28;20038;-76
2022/07/07 06:37:02;;;;;;;5.75;2.40;;;;;;;27.49;38.85;92834.00;5030472;28;20545;-76
2022/07/07 06:39:28;;;;;;;7.20;2.50;;;;;;;26.87;39.49;92832.38;5031042;28;20033;-76
2022/07/07 06:41:53;;;;;;;6.80;2.72;;;;;;;25.81;41.82;92834.91;5030666;28;20037;-76
2022/07/07 06:44:19;;;;;;;7.50;2.65;;;;;;;24.91;44.47;92830.69;5030775;28;20045;-76
2022/07/07 06:46:44;;;;;;;6.75;2.60;;;;;;;24.32;45.94;92825.06;5030849;28;20475;-76
2022/07/07 06:49:10;;;;;;;4.95;2.60;;;;;;;24.36;46.88;92835.78;5031519;28;20311;-76
2022/07/07 06:51:35;;;;;;;7.30;3.03;;;;;;;24.52;46.98;92839.06;5030311;28;20045;-75
2022/07/07 06:54:01;;;;;;;6.15;2.70;;;;;;;24.49;47.14;92839.78;5030550;28;20037;-75
2022/07/07 06:56:27;;;;;;;6.30;2.70;;;;;;;25.02;47.73;92844.97;5030729;28;20387;-75
2022/07/07 06:58:52;;;;;;;6.60;2.67;;;;;;;25.03;45.57;92841.13;5013007;28;20152;-75
2022/07/07 07:01:18;;;;;;;6.07;2.78;;;;;;;24.60;47.80;92843.34;5030565;28;20045;-75
2022/07/07 07:03:43;;;;;;;9.02;2.63;;;;;;;24.17;48.23;92834.78;5007008;28;20355;-75
2022/07/07 07:06:10;;;;;;;6.03;2.72;;;;;;;24.04;49.58;92831.56;5011947;28;20041;-75
2022/07/07 07:08:36;;;;;;;5.57;2.70;;;;;;;23.70;49.89;92834.13;4993068;28;20030;-75
2022/07/07 07:11:03;;;;;;;9.93;3.13;;;;;;;23.47;51.46;92834.16;5010421;28;20463;-75
2022/07/07 07:13:29;;;;;;;6.78;2.83;;;;;;;23.83;50.34;92821.34;5026213;28;20038;-75
2022/07/07 07:15:55;;;;;;;4.80;2.88;;;;;;;23.93;49.59;92827.22;5030423;28;20038;-75
2022/07/07 07:18:20;;;;;;;4.68;2.95;;;;;;;23.76;51.77;92828.50;5013119;28;20029;-75
2022/07/07 07:20:46;;;;;;;7.65;3.13;;;;;;;23.55;52.59;92831.59;5012809;28;20499;-75
2022/07/07 07:23:11;;;;;;;7.57;2.88;;;;;;;23.14;54.35;92837.44;5028956;28;20045;-75
2022/07/07 07:25:37;;;;;;;5.50;2.95;;;;;;;23.17;52.67;92833.28;5030477;28;20039;-75
2022/07/07 07:28:03;;;;;;;5.53;2.80;;;;;;;23.29;51.83;92835.78;5026721;28;20346;-75
2022/07/07 07:30:28;;;;;;;6.15;3.00;;;;;;;23.16;53.98;92832.50;5029307;28;20057;-75
2022/07/07 07:32:54;;;;;;;6.07;2.88;;;;;;;23.24;53.78;92836.09;4994529;28;20562;-75
2022/07/07 07:35:20;;;;;;;8.35;3.10;;;;;;;23.30;52.36;92839.97;5029567;28;20448;-75
2022/07/07 07:37:45;;;;;;;9.45;3.00;;;;;;;23.19;53.05;92844.38;5005782;28;20046;-75
2022/07/07 07:40:11;;;;;;;4.32;2.80;;;;;;;23.28;52.56;92839.56;4991550;28;20056;-75
2022/07/07 07:42:38;;;;;;;6.50;2.85;;;;;;;23.35;52.48;92844.25;5028524;28;20037;-77
2022/07/07 07:45:14;;;;;;;6.10;2.85;;;;;;;23.61;51.49;92840.84;5029714;28;20029;-77
2022/07/07 07:47:45;;;;;;;6.88;3.00;;;;;;;23.37;50.96;92842.78;4996594;28;20044;-76
2022/07/07 07:50:20;;;;;;;10.68;3.00;;;;;;;23.24;51.83;92838.75;5032628;28;20095;-76
2022/07/07 07:52:46;;;;;;;8.77;3.33;;;;;;;23.37;52.90;92840.13;5015197;28;20498;-75
2022/07/07 07:55:14;;;;;;;5.28;2.97;;;;;;;23.37;50.35;92840.13;5016100;28;20033;-76
2022/07/07 07:57:41;;;;;;;4.97;3.15;;;;;;;23.53;50.31;92847.19;4999714;28;20057;-76
2022/07/07 08:00:09;;;;;;;5.05;2.70;;;;;;;23.67;50.16;92842.09;5027277;28;20064;-76
2022/07/07 08:02:41;;;;;;;7.25;2.80;;;;;;;23.69;50.32;92845.19;5016137;28;20062;-76
2022/07/07 08:05:07;;;;;;;7.55;3.20;;;;;;;23.63;50.56;92841.25;5031546;28;20038;-75
2022/07/07 08:07:33;;;;;;;4.20;2.75;;;;;;;23.73;50.74;92843.31;5013972;28;20060;-76
2022/07/07 08:10:00;;;;;;;7.00;2.97;;;;;;;23.60;50.44;92840.09;5033485;28;20437;-76
2022/07/07 08:12:26;;;;;;;5.35;2.90;;;;;;;23.59;51.23;92851.13;5031246;28;20033;-75
2022/07/07 08:14:51;;;;;;;4.78;2.75;;;;;;;23.81;51.33;92854.91;5014172;28;20450;-75
2022/07/07 08:17:17;;;;;;;6.05;2.85;;;;;;;23.69;49.99;92845.19;5014176;28;20462;-75
2022/07/07 08:19:43;;;;;;;7.93;2.90;;;;;;;23.46;50.16;92846.00;5032637;28;20037;-75
2022/07/07 08:22:08;;;;;;;8.20;2.55;;;;;;;23.20;50.41;92849.38;5015496;28;20033;-76
2022/07/07 08:24:34;;;;;;;5.63;2.95;;;;;;;23.01;51.37;92858.22;5015015;28;20041;-76
2022/07/07 08:27:00;;;;;;;5.93;2.80;;;;;;;22.85;50.92;92860.16;4999865;28;20029;-77
2022/07/07 08:29:25;;;;;;;4.97;2.90;;;;;;;22.71;52.18;92859.91;5016379;28;20738;-77
2022/07/07 08:31:51;;;;;;;9.25;2.80;;;;;;;22.64;51.50;92860.53;5016035;28;20081;-76
2022/07/07 08:34:16;;;;;;;8.02;2.97;;;;;;;22.51;52.70;92859.13;5033441;28;20363;-77
2022/07/07 08:36:42;;;;;;;12.10;4.18;;;;;;;22.35;53.59;92859.22;5008774;28;20029;-77
2022/07/07 08:39:08;;;;;;;8.02;3.22;;;;;;;22.22;54.78;92856.69;5016072;28;20117;-77
2022/07/07 08:41:33;;;;;;;4.40;2.90;;;;;;;22.28;53.92;92851.84;5017980;28;20125;-77
2022/07/07 08:43:59;;;;;;;8.40;3.17;;;;;;;22.52;53.70;92858.03;5034354;28;20033;-76
2022/07/07 08:46:25;;;;;;;6.03;3.10;;;;;;;22.47;55.33;92869.72;5021883;28;20040;-75
2022/07/07 08:48:52;;;;;;;7.75;3.00;;;;;;;22.30;53.58;92860.25;4999998;28;20116;-76
2022/07/07 08:51:18;;;;;;;5.38;2.78;;;;;;;22.50;48.99;92857.59;5033250;28;20065;-76
2022/07/07 08:53:48;;;;;;;6.50;2.78;;;;;;;22.52;48.94;92869.47;5034129;28;20471;-76
2022/07/07 08:56:18;;;;;;;6.40;2.80;;;;;;;22.53;48.51;92863.00;5029116;28;20036;-76
2022/07/07 08:58:44;;;;;;;6.70;3.00;;;;;;;22.66;49.96;92861.72;5026921;28;20038;-76
2022/07/07 09:01:10;;;;;;;6.57;3.70;;;;;;;22.84;50.28;92863.97;5013019;28;20041;-76
2022/07/07 09:03:35;;;;;;;13.75;3.83;;;;;;;23.04;51.24;92852.16;5033805;28;20087;-76
2022/07/07 09:06:02;;;;;;;9.75;4.43;;;;;;;23.23;49.86;92862.00;5015480;28;20145;-76
2022/07/07 09:08:30;;;;;;;5.95;2.88;;;;;;;23.40;49.55;92855.41;5014978;28;20478;-76
2022/07/07 09:10:56;;;;;;;5.93;3.72;;;;;;;23.36;50.58;92857.25;5031455;28;20044;-76
2022/07/07 09:13:30;;;;;;;10.68;3.40;;;;;;;23.62;50.33;92847.72;4998514;28;20046;-76
2022/07/07 09:16:07;;;;;;;6.65;3.40;;;;;;;24.00;51.65;92856.72;5032221;28;20036;-76
2022/07/07 09:18:36;;;;;;;4.50;2.60;;;;;;;24.19;50.35;92851.25;4995268;28;20073;-76
2022/07/07 09:21:05;;;;;;;6.93;3.70;;;;;;;24.36;49.67;92855.28;5002950;28;20036;-76
2022/07/07 09:23:31;;;;;;;5.72;3.13;;;;;;;24.62;50.18;92853.72;5014462;28;20407;-77
2022/07/07 09:25:57;;;;;;;10.55;3.80;;;;;;;24.73;48.79;92847.31;5015694;28;20045;-76
2022/07/07 09:28:25;;;;;;;8.88;3.35;;;;;;;24.99;50.34;92844.91;5032413;28;20075;-76
2022/07/07 09:30:50;;;;;;;8.57;3.40;;;;;;;25.03;48.90;92851.84;5031008;28;20079;-76
2022/07/07 09:33:22;;;;;;;7.68;3.33;;;;;;;25.25;48.69;92846.72;5032198;28;20317;-76
2022/07/07 09:38:34;;;;;;;8.82;3.42;;;;;;;25.19;45.66;92835.56;5032307;28;20064;-77
2022/07/07 09:41:05;;;;;;;5.38;3.40;;;;;;;24.62;46.82;92848.34;5028139;28;20036;-76
2022/07/07 09:43:52;;;;;;;9.57;2.83;;;;;;;24.50;47.14;92841.34;5029165;28;20033;-76
2022/07/07 09:46:26;;;;;;;5.68;3.53;;;;;;;24.48;49.03;92843.63;5032152;28;20458;-76
2022/07/07 09:48:53;;;;;;;5.68;3.50;;;;;;;24.50;48.49;92836.00;5014981;28;20041;-76
2022/07/07 09:51:29;;;;;;;7.97;4.38;;;;;;;24.52;48.79;92842.53;5015558;28;20068;-78
2022/07/07 09:54:10;;;;;;;7.68;3.47;;;;;;;24.75;49.59;92836.25;5031499;28;20041;-76
2022/07/07 09:56:35;;;;;;;6.35;3.92;;;;;;;24.84;48.04;92838.66;5031735;28;20398;-76
2022/07/07 09:59:05;;;;;;;12.63;4.47;;;;;;;24.59;49.04;92843.72;4998504;28;20116;-78
2022/07/07 10:01:33;;;;;;;7.03;4.20;;;;;;;24.83;49.82;92843.22;5021658;28;20033;-78
2022/07/07 10:04:05;;;;;;;9.63;3.70;;;;;;;25.18;49.51;92836.69;5002496;28;20033;-76
2022/07/07 10:06:32;;;;;;;8.15;4.18;;;;;;;25.44;46.45;92843.81;5013477;28;20085;-76
2022/07/07 10:09:03;;;;;;;7.53;3.90;;;;;;;25.41;48.56;92849.91;5032134;28;20102;-76
2022/07/07 10:11:36;;;;;;;6.72;3.75;;;;;;;25.69;46.71;92843.22;5035368;28;20572;-76
2022/07/07 10:14:22;;;;;;;8.40;4.22;;;;;;;25.84;46.69;92847.56;5051068;28;20492;-76
2022/07/07 10:16:51;;;;;;;7.80;4.07;;;;;;;25.79;45.88;92833.75;5011822;28;20072;-77
2022/07/07 10:19:22;;;;;;;6.55;3.70;;;;;;;25.90;47.26;92824.66;5016481;28;20082;-76
2022/07/07 10:21:50;;;;;;;9.13;5.13;;;;;;;25.85;46.87;92827.66;5032386;28;20482;-76
2022/07/07 10:24:18;;;;;;;9.65;5.40;;;;;;;25.44;49.10;92822.38;5033326;28;20075;-76
2022/07/07 10:26:53;;;;;;;10.18;5.00;;;;;;;25.72;48.83;92826.41;5015770;28;20026;-77
2022/07/07 10:29:46;;;;;;;11.52;5.28;;;;;;;25.37;48.15;92825.00;5031797;28;20453;-77
2022/07/07 10:32:33;;;;;;;10.15;5.07;;;;;;;25.39;49.96;92822.72;5030781;28;20033;-78
2022/07/07 10:35:19;;;;;;;8.05;5.05;;;;;;;25.51;50.10;92822.44;5032402;28;20037;-77
2022/07/07 10:37:49;;;;;;;10.18;5.40;;;;;;;25.47;51.45;92821.66;5014623;28;20518;-78
2022/07/07 10:40:23;;;;;;;8.10;5.63;;;;;;;25.43;49.84;92810.13;4994680;28;20037;-78
2022/07/07 10:43:14;;;;;;;10.68;5.63;;;;;;;25.32;50.57;92815.41;5032357;28;20116;-78
2022/07/07 10:45:48;;;;;;;9.40;5.80;;;;;;;25.28;50.34;92800.44;5007082;28;20055;-78
2022/07/07 10:48:39;;;;;;;9.95;5.82;;;;;;;25.34;51.17;92801.63;5032117;28;20034;-78
2022/07/07 10:51:17;;;;;;;8.63;5.00;;;;;;;25.59;50.75;92798.38;5029438;28;20048;-78
2022/07/07 10:53:55;;;;;;;10.48;6.25;;;;;;;25.49;48.21;92802.53;5012890;28;20049;-78
2022/07/07 10:56:20;;;;;;;11.30;5.70;;;;;;;25.65;49.36;92796.88;5006444;28;20026;-78
2022/07/07 10:58:59;;;;;;;17.83;7.15;;;;;;;25.11;49.21;92799.13;5013539;28;20026;-77
2022/07/07 11:01:27;;;;;;;9.60;6.10;;;;;;;25.31;50.36;92791.69;5013216;28;20037;-75
2022/07/07 11:03:53;;;;;;;9.65;5.75;;;;;;;25.86;51.58;92790.88;5007966;28;20037;-78
2022/07/07 11:06:18;;;;;;;12.90;6.22;;;;;;;26.31;48.07;92797.63;5030139;28;20061;-76
2022/07/07 11:08:59;;;;;;;9.00;6.00;;;;;;;26.48;49.13;92790.03;5030990;28;20048;-75
2022/07/07 11:11:25;;;;;;;10.50;7.18;;;;;;;25.73;48.82;92785.06;5013071;28;20033;-76
2022/07/07 11:14:09;;;;;;;9.45;6.93;;;;;;;25.40;49.77;92794.81;5015154;28;20494;-78
2022/07/07 11:16:35;;;;;;;13.45;7.45;;;;;;;25.41;50.40;92788.28;5031570;28;20036;-75
2022/07/07 11:19:03;;;;;;;9.48;6.90;;;;;;;25.61;50.19;92782.69;5030909;28;20136;-75
2022/07/07 11:21:36;;;;;;;10.68;6.10;;;;;;;25.87;51.47;92785.19;5029531;28;20403;-75
2022/07/07 11:24:12;;;;;;;9.65;6.13;;;;;;;26.09;51.02;92775.31;5028159;28;20037;-75
2022/07/07 11:26:38;;;;;;;13.70;5.88;;;;;;;25.89;48.71;92787.47;5034324;28;20040;-75
2022/07/07 11:29:03;;;;;;;9.35;5.25;;;;;;;26.38;48.11;92778.88;5034312;28;20050;-75
2022/07/07 11:31:30;;;;;;;9.00;5.25;;;;;;;26.74;47.70;92787.06;5034467;28;20483;-75
2022/07/07 11:33:57;;;;;;;14.15;6.05;;;;;;;26.88;47.74;92780.19;5014447;28;20057;-78